sensor_id;sensor_type;location;lat;lon;timestamp;P1;durP1;ratioP1;P2;durP2;ratioP2
20322;SDS011;10319;52.206;20.996;2024-02-16T00:02:06;24.63;;;9.03;;
20322;SDS011;10319;52.206;20.996;2024-02-16T00:04:31;29.27;;;10.50;;
20322;SDS011;10319;52.206;20.996;2024-02-16T00:06:57;30.57;;;10.13;;
20322;SDS011;10319;52.206;20.996;2024-02-16T00:09:22;28.63;;;10.40;;
20322;SDS011;10319;52.206;20.996;2024-02-16T00:11:47;28.03;;;10.07;;
20322;SDS011;10319;52.206;20.996;2024-02-16T00:14:15;32.63;;;10.80;;
20322;SDS011;10319;52.206;20.996;2024-02-16T00:16:40;24.80;;;9.07;;
20322;SDS011;10319;52.206;20.996;2024-02-16T00:19:06;25.10;;;9.03;;
20322;SDS011;10319;52.206;20.996;2024-02-16T00:21:31;27.73;;;9.27;;
20322;SDS011;10319;52.206;20.996;2024-02-16T00:23:56;25.30;;;9.07;;
20322;SDS011;10319;52.206;20.996;2024-02-16T00:26:21;25.03;;;8.67;;
20322;SDS011;10319;52.206;20.996;2024-02-16T00:28:48;28.13;;;10.13;;
20322;SDS011;10319;52.206;20.996;2024-02-16T00:31:13;22.57;;;8.60;;
20322;SDS011;10319;52.206;20.996;2024-02-16T00:33:38;28.53;;;9.50;;
20322;SDS011;10319;52.206;20.996;2024-02-16T00:36:04;27.53;;;8.70;;
20322;SDS011;10319;52.206;20.996;2024-02-16T00:38:29;26.57;;;8.77;;
20322;SDS011;10319;52.206;20.996;2024-02-16T00:40:54;23.07;;;7.90;;
20322;SDS011;10319;52.206;20.996;2024-02-16T00:43:20;25.57;;;8.33;;
20322;SDS011;10319;52.206;20.996;2024-02-16T00:45:45;25.90;;;8.60;;
20322;SDS011;10319;52.206;20.996;2024-02-16T00:48:11;24.73;;;8.23;;
20322;SDS011;10319;52.206;20.996;2024-02-16T00:50:36;24.87;;;8.07;;
20322;SDS011;10319;52.206;20.996;2024-02-16T00:53:01;22.73;;;7.10;;
20322;SDS011;10319;52.206;20.996;2024-02-16T00:55:27;23.80;;;7.70;;
20322;SDS011;10319;52.206;20.996;2024-02-16T00:57:52;26.40;;;8.23;;
20322;SDS011;10319;52.206;20.996;2024-02-16T01:00:17;24.70;;;7.63;;
20322;SDS011;10319;52.206;20.996;2024-02-16T01:02:44;22.73;;;6.90;;
20322;SDS011;10319;52.206;20.996;2024-02-16T01:05:09;22.40;;;6.83;;
20322;SDS011;10319;52.206;20.996;2024-02-16T01:07:35;22.57;;;6.97;;
20322;SDS011;10319;52.206;20.996;2024-02-16T01:10:00;24.03;;;7.23;;
20322;SDS011;10319;52.206;20.996;2024-02-16T01:12:28;21.33;;;7.00;;
20322;SDS011;10319;52.206;20.996;2024-02-16T01:14:55;20.83;;;6.60;;
20322;SDS011;10319;52.206;20.996;2024-02-16T01:17:21;21.07;;;6.40;;
20322;SDS011;10319;52.206;20.996;2024-02-16T01:19:46;21.77;;;6.93;;
20322;SDS011;10319;52.206;20.996;2024-02-16T01:22:12;22.93;;;6.63;;
20322;SDS011;10319;52.206;20.996;2024-02-16T01:24:37;22.57;;;6.80;;
20322;SDS011;10319;52.206;20.996;2024-02-16T01:27:02;21.43;;;7.00;;
20322;SDS011;10319;52.206;20.996;2024-02-16T01:29:28;23.03;;;6.73;;
20322;SDS011;10319;52.206;20.996;2024-02-16T01:31:53;19.90;;;5.87;;
20322;SDS011;10319;52.206;20.996;2024-02-16T01:34:18;22.17;;;6.73;;
20322;SDS011;10319;52.206;20.996;2024-02-16T01:36:43;21.47;;;6.10;;
20322;SDS011;10319;52.206;20.996;2024-02-16T01:39:09;23.03;;;6.57;;
20322;SDS011;10319;52.206;20.996;2024-02-16T01:41:37;19.87;;;6.00;;
20322;SDS011;10319;52.206;20.996;2024-02-16T01:44:03;19.37;;;6.30;;
20322;SDS011;10319;52.206;20.996;2024-02-16T01:46:28;19.90;;;5.83;;
20322;SDS011;10319;52.206;20.996;2024-02-16T01:48:53;20.97;;;6.23;;
20322;SDS011;10319;52.206;20.996;2024-02-16T01:51:19;21.10;;;6.70;;
20322;SDS011;10319;52.206;20.996;2024-02-16T01:53:46;17.43;;;5.40;;
20322;SDS011;10319;52.206;20.996;2024-02-16T01:56:11;21.13;;;6.33;;
20322;SDS011;10319;52.206;20.996;2024-02-16T01:58:37;19.37;;;6.23;;
20322;SDS011;10319;52.206;20.996;2024-02-16T02:01:03;18.43;;;5.90;;
20322;SDS011;10319;52.206;20.996;2024-02-16T02:03:29;22.20;;;6.17;;
20322;SDS011;10319;52.206;20.996;2024-02-16T02:05:54;18.80;;;5.67;;
20322;SDS011;10319;52.206;20.996;2024-02-16T02:08:21;20.60;;;6.27;;
20322;SDS011;10319;52.206;20.996;2024-02-16T02:10:46;20.43;;;6.40;;
20322;SDS011;10319;52.206;20.996;2024-02-16T02:13:11;19.27;;;5.90;;
20322;SDS011;10319;52.206;20.996;2024-02-16T02:15:37;19.13;;;6.13;;
20322;SDS011;10319;52.206;20.996;2024-02-16T02:18:02;19.90;;;5.50;;
20322;SDS011;10319;52.206;20.996;2024-02-16T02:20:27;20.73;;;5.87;;
20322;SDS011;10319;52.206;20.996;2024-02-16T02:22:52;21.00;;;6.23;;
20322;SDS011;10319;52.206;20.996;2024-02-16T02:25:18;21.17;;;5.83;;
20322;SDS011;10319;52.206;20.996;2024-02-16T02:27:43;19.67;;;5.73;;
20322;SDS011;10319;52.206;20.996;2024-02-16T02:30:08;19.90;;;6.40;;
20322;SDS011;10319;52.206;20.996;2024-02-16T02:32:34;20.83;;;6.00;;
20322;SDS011;10319;52.206;20.996;2024-02-16T02:34:59;19.97;;;5.93;;
20322;SDS011;10319;52.206;20.996;2024-02-16T02:37:24;17.63;;;5.53;;
20322;SDS011;10319;52.206;20.996;2024-02-16T02:39:50;18.27;;;5.80;;
20322;SDS011;10319;52.206;20.996;2024-02-16T02:42:15;18.10;;;5.47;;
20322;SDS011;10319;52.206;20.996;2024-02-16T02:44:40;17.97;;;5.47;;
20322;SDS011;10319;52.206;20.996;2024-02-16T02:47:06;18.57;;;5.57;;
20322;SDS011;10319;52.206;20.996;2024-02-16T02:49:31;20.17;;;5.70;;
20322;SDS011;10319;52.206;20.996;2024-02-16T02:51:58;20.33;;;5.80;;
20322;SDS011;10319;52.206;20.996;2024-02-16T02:54:23;18.87;;;5.73;;
20322;SDS011;10319;52.206;20.996;2024-02-16T02:56:49;18.43;;;5.37;;
20322;SDS011;10319;52.206;20.996;2024-02-16T02:59:14;18.90;;;5.23;;
20322;SDS011;10319;52.206;20.996;2024-02-16T03:01:39;21.50;;;5.40;;
20322;SDS011;10319;52.206;20.996;2024-02-16T03:04:04;18.80;;;5.63;;
20322;SDS011;10319;52.206;20.996;2024-02-16T03:06:30;17.80;;;4.77;;
20322;SDS011;10319;52.206;20.996;2024-02-16T03:08:56;18.00;;;5.33;;
20322;SDS011;10319;52.206;20.996;2024-02-16T03:11:21;17.80;;;4.97;;
20322;SDS011;10319;52.206;20.996;2024-02-16T03:13:46;19.27;;;5.43;;
20322;SDS011;10319;52.206;20.996;2024-02-16T03:16:12;17.87;;;5.47;;
20322;SDS011;10319;52.206;20.996;2024-02-16T03:18:38;18.07;;;5.50;;
20322;SDS011;10319;52.206;20.996;2024-02-16T03:21:03;20.73;;;6.40;;
20322;SDS011;10319;52.206;20.996;2024-02-16T03:23:28;20.00;;;5.53;;
20322;SDS011;10319;52.206;20.996;2024-02-16T03:25:54;21.77;;;5.97;;
20322;SDS011;10319;52.206;20.996;2024-02-16T03:28:19;17.13;;;4.87;;
20322;SDS011;10319;52.206;20.996;2024-02-16T03:30:45;20.33;;;6.03;;
20322;SDS011;10319;52.206;20.996;2024-02-16T03:33:11;19.47;;;5.47;;
20322;SDS011;10319;52.206;20.996;2024-02-16T03:35:37;17.87;;;5.27;;
20322;SDS011;10319;52.206;20.996;2024-02-16T03:38:05;16.87;;;5.27;;
20322;SDS011;10319;52.206;20.996;2024-02-16T03:40:30;19.07;;;5.70;;
20322;SDS011;10319;52.206;20.996;2024-02-16T03:42:56;20.53;;;5.90;;
20322;SDS011;10319;52.206;20.996;2024-02-16T03:45:22;19.43;;;5.87;;
20322;SDS011;10319;52.206;20.996;2024-02-16T03:47:48;21.73;;;6.10;;
20322;SDS011;10319;52.206;20.996;2024-02-16T03:50:19;18.83;;;5.20;;
20322;SDS011;10319;52.206;20.996;2024-02-16T03:52:45;18.63;;;5.60;;
20322;SDS011;10319;52.206;20.996;2024-02-16T03:55:10;19.63;;;5.67;;
20322;SDS011;10319;52.206;20.996;2024-02-16T03:57:36;17.43;;;5.50;;
20322;SDS011;10319;52.206;20.996;2024-02-16T04:00:02;20.40;;;5.40;;
20322;SDS011;10319;52.206;20.996;2024-02-16T04:02:27;18.47;;;5.43;;
20322;SDS011;10319;52.206;20.996;2024-02-16T04:04:53;17.23;;;5.00;;
20322;SDS011;10319;52.206;20.996;2024-02-16T04:07:18;20.07;;;6.13;;
20322;SDS011;10319;52.206;20.996;2024-02-16T04:09:43;18.97;;;5.70;;
20322;SDS011;10319;52.206;20.996;2024-02-16T04:12:08;21.83;;;5.90;;
20322;SDS011;10319;52.206;20.996;2024-02-16T04:14:35;20.43;;;6.13;;
20322;SDS011;10319;52.206;20.996;2024-02-16T04:17:00;21.13;;;5.70;;
20322;SDS011;10319;52.206;20.996;2024-02-16T04:19:26;19.63;;;5.63;;
20322;SDS011;10319;52.206;20.996;2024-02-16T04:21:51;21.47;;;6.50;;
20322;SDS011;10319;52.206;20.996;2024-02-16T04:24:16;20.67;;;5.83;;
20322;SDS011;10319;52.206;20.996;2024-02-16T04:26:42;21.37;;;6.50;;
20322;SDS011;10319;52.206;20.996;2024-02-16T04:29:07;19.63;;;5.87;;
20322;SDS011;10319;52.206;20.996;2024-02-16T04:31:32;24.20;;;6.70;;
20322;SDS011;10319;52.206;20.996;2024-02-16T04:33:57;20.10;;;5.60;;
20322;SDS011;10319;52.206;20.996;2024-02-16T04:36:23;19.47;;;5.57;;
20322;SDS011;10319;52.206;20.996;2024-02-16T04:38:48;17.97;;;5.20;;
20322;SDS011;10319;52.206;20.996;2024-02-16T04:41:13;16.97;;;5.27;;
20322;SDS011;10319;52.206;20.996;2024-02-16T04:43:39;18.03;;;4.53;;
20322;SDS011;10319;52.206;20.996;2024-02-16T04:46:04;18.97;;;5.60;;
20322;SDS011;10319;52.206;20.996;2024-02-16T04:48:29;18.67;;;5.70;;
20322;SDS011;10319;52.206;20.996;2024-02-16T04:50:56;17.57;;;5.10;;
20322;SDS011;10319;52.206;20.996;2024-02-16T04:53:21;22.00;;;6.27;;
20322;SDS011;10319;52.206;20.996;2024-02-16T04:55:46;17.93;;;5.30;;
20322;SDS011;10319;52.206;20.996;2024-02-16T04:58:12;21.40;;;6.00;;
20322;SDS011;10319;52.206;20.996;2024-02-16T05:00:37;19.33;;;5.40;;
20322;SDS011;10319;52.206;20.996;2024-02-16T05:03:03;19.33;;;5.73;;
20322;SDS011;10319;52.206;20.996;2024-02-16T05:05:28;23.57;;;6.73;;
20322;SDS011;10319;52.206;20.996;2024-02-16T05:07:55;19.40;;;6.10;;
20322;SDS011;10319;52.206;20.996;2024-02-16T05:10:20;19.93;;;5.77;;
20322;SDS011;10319;52.206;20.996;2024-02-16T05:12:46;19.27;;;5.90;;
20322;SDS011;10319;52.206;20.996;2024-02-16T05:15:11;19.50;;;5.97;;
20322;SDS011;10319;52.206;20.996;2024-02-16T05:17:40;22.37;;;6.20;;
20322;SDS011;10319;52.206;20.996;2024-02-16T05:20:11;18.67;;;5.33;;
20322;SDS011;10319;52.206;20.996;2024-02-16T05:22:43;22.37;;;6.70;;
20322;SDS011;10319;52.206;20.996;2024-02-16T05:25:10;18.27;;;5.33;;
20322;SDS011;10319;52.206;20.996;2024-02-16T05:27:54;20.90;;;6.07;;
20322;SDS011;10319;52.206;20.996;2024-02-16T05:30:20;18.10;;;5.20;;
20322;SDS011;10319;52.206;20.996;2024-02-16T05:32:45;19.77;;;5.70;;
20322;SDS011;10319;52.206;20.996;2024-02-16T05:35:10;17.17;;;5.03;;
20322;SDS011;10319;52.206;20.996;2024-02-16T05:37:45;19.60;;;5.90;;
20322;SDS011;10319;52.206;20.996;2024-02-16T05:40:14;19.60;;;5.80;;
20322;SDS011;10319;52.206;20.996;2024-02-16T05:42:59;22.97;;;6.57;;
20322;SDS011;10319;52.206;20.996;2024-02-16T05:45:24;20.87;;;6.37;;
20322;SDS011;10319;52.206;20.996;2024-02-16T05:47:51;20.40;;;6.30;;
20322;SDS011;10319;52.206;20.996;2024-02-16T05:50:17;17.93;;;5.70;;
20322;SDS011;10319;52.206;20.996;2024-02-16T05:52:42;19.90;;;6.23;;
20322;SDS011;10319;52.206;20.996;2024-02-16T05:55:08;21.77;;;6.07;;
20322;SDS011;10319;52.206;20.996;2024-02-16T05:57:34;20.93;;;6.73;;
20322;SDS011;10319;52.206;20.996;2024-02-16T06:00:00;18.50;;;5.50;;
20322;SDS011;10319;52.206;20.996;2024-02-16T06:02:25;20.23;;;6.00;;
20322;SDS011;10319;52.206;20.996;2024-02-16T06:04:51;21.10;;;5.87;;
20322;SDS011;10319;52.206;20.996;2024-02-16T06:07:16;22.27;;;6.40;;
20322;SDS011;10319;52.206;20.996;2024-02-16T06:09:42;22.77;;;7.00;;
20322;SDS011;10319;52.206;20.996;2024-02-16T06:12:07;21.23;;;6.27;;
20322;SDS011;10319;52.206;20.996;2024-02-16T06:14:34;18.23;;;5.57;;
20322;SDS011;10319;52.206;20.996;2024-02-16T06:16:59;20.30;;;6.30;;
20322;SDS011;10319;52.206;20.996;2024-02-16T06:19:25;19.00;;;5.93;;
20322;SDS011;10319;52.206;20.996;2024-02-16T06:21:50;19.27;;;5.90;;
20322;SDS011;10319;52.206;20.996;2024-02-16T06:24:16;21.70;;;6.20;;
20322;SDS011;10319;52.206;20.996;2024-02-16T06:26:41;21.87;;;6.77;;
20322;SDS011;10319;52.206;20.996;2024-02-16T06:29:08;20.93;;;6.70;;
20322;SDS011;10319;52.206;20.996;2024-02-16T06:31:33;21.13;;;7.07;;
20322;SDS011;10319;52.206;20.996;2024-02-16T06:33:59;20.00;;;6.30;;
20322;SDS011;10319;52.206;20.996;2024-02-16T06:36:24;19.70;;;6.13;;
20322;SDS011;10319;52.206;20.996;2024-02-16T06:38:49;22.17;;;6.97;;
20322;SDS011;10319;52.206;20.996;2024-02-16T06:41:14;18.60;;;5.87;;
20322;SDS011;10319;52.206;20.996;2024-02-16T06:43:40;21.67;;;6.60;;
20322;SDS011;10319;52.206;20.996;2024-02-16T06:46:05;21.77;;;6.77;;
20322;SDS011;10319;52.206;20.996;2024-02-16T06:48:30;22.87;;;7.40;;
20322;SDS011;10319;52.206;20.996;2024-02-16T06:50:56;23.03;;;6.97;;
20322;SDS011;10319;52.206;20.996;2024-02-16T06:53:21;18.30;;;5.83;;
20322;SDS011;10319;52.206;20.996;2024-02-16T06:55:46;21.97;;;6.70;;
20322;SDS011;10319;52.206;20.996;2024-02-16T06:58:11;28.03;;;7.90;;
20322;SDS011;10319;52.206;20.996;2024-02-16T07:00:37;24.30;;;7.33;;
20322;SDS011;10319;52.206;20.996;2024-02-16T07:03:02;22.00;;;6.93;;
20322;SDS011;10319;52.206;20.996;2024-02-16T07:05:27;24.63;;;7.80;;
20322;SDS011;10319;52.206;20.996;2024-02-16T07:07:53;23.57;;;7.20;;
20322;SDS011;10319;52.206;20.996;2024-02-16T07:10:18;20.63;;;6.97;;
20322;SDS011;10319;52.206;20.996;2024-02-16T07:12:44;21.07;;;6.77;;
20322;SDS011;10319;52.206;20.996;2024-02-16T07:15:10;22.70;;;6.87;;
20322;SDS011;10319;52.206;20.996;2024-02-16T07:17:35;23.13;;;7.27;;
20322;SDS011;10319;52.206;20.996;2024-02-16T07:20:01;21.70;;;7.20;;
20322;SDS011;10319;52.206;20.996;2024-02-16T07:22:32;25.27;;;8.13;;
20322;SDS011;10319;52.206;20.996;2024-02-16T07:24:58;22.47;;;7.17;;
20322;SDS011;10319;52.206;20.996;2024-02-16T07:27:25;21.97;;;7.47;;
20322;SDS011;10319;52.206;20.996;2024-02-16T07:29:50;24.90;;;8.03;;
20322;SDS011;10319;52.206;20.996;2024-02-16T07:32:15;22.03;;;6.93;;
20322;SDS011;10319;52.206;20.996;2024-02-16T07:34:45;22.53;;;7.50;;
20322;SDS011;10319;52.206;20.996;2024-02-16T07:37:10;25.17;;;7.63;;
20322;SDS011;10319;52.206;20.996;2024-02-16T07:39:35;23.40;;;7.70;;
20322;SDS011;10319;52.206;20.996;2024-02-16T07:42:00;22.63;;;7.17;;
20322;SDS011;10319;52.206;20.996;2024-02-16T07:44:27;21.53;;;7.40;;
20322;SDS011;10319;52.206;20.996;2024-02-16T07:46:52;23.40;;;7.47;;
20322;SDS011;10319;52.206;20.996;2024-02-16T07:49:17;22.40;;;7.27;;
20322;SDS011;10319;52.206;20.996;2024-02-16T07:51:43;23.57;;;7.47;;
20322;SDS011;10319;52.206;20.996;2024-02-16T07:54:08;24.23;;;7.37;;
20322;SDS011;10319;52.206;20.996;2024-02-16T07:56:33;25.40;;;7.83;;
20322;SDS011;10319;52.206;20.996;2024-02-16T08:04:31;26.40;;;8.20;;
20322;SDS011;10319;52.206;20.996;2024-02-16T08:06:56;25.30;;;8.00;;
20322;SDS011;10319;52.206;20.996;2024-02-16T08:09:22;22.17;;;6.20;;
20322;SDS011;10319;52.206;20.996;2024-02-16T08:11:48;20.57;;;6.93;;
20322;SDS011;10319;52.206;20.996;2024-02-16T08:14:29;19.63;;;6.13;;
20322;SDS011;10319;52.206;20.996;2024-02-16T08:20:18;21.77;;;7.10;;
20322;SDS011;10319;52.206;20.996;2024-02-16T08:23:00;21.60;;;6.80;;
20322;SDS011;10319;52.206;20.996;2024-02-16T08:25:26;21.53;;;6.40;;
20322;SDS011;10319;52.206;20.996;2024-02-16T08:30:37;24.57;;;7.30;;
20322;SDS011;10319;52.206;20.996;2024-02-16T08:33:09;23.63;;;7.27;;
20322;SDS011;10319;52.206;20.996;2024-02-16T08:35:34;23.80;;;7.10;;
20322;SDS011;10319;52.206;20.996;2024-02-16T08:41:03;21.90;;;6.83;;
20322;SDS011;10319;52.206;20.996;2024-02-16T08:43:39;25.67;;;7.80;;
20322;SDS011;10319;52.206;20.996;2024-02-16T08:46:23;25.63;;;7.33;;
20322;SDS011;10319;52.206;20.996;2024-02-16T08:49:07;20.27;;;6.43;;
20322;SDS011;10319;52.206;20.996;2024-02-16T08:51:35;19.03;;;6.00;;
20322;SDS011;10319;52.206;20.996;2024-02-16T08:54:08;21.37;;;6.87;;
20322;SDS011;10319;52.206;20.996;2024-02-16T09:02:44;22.10;;;6.93;;
20322;SDS011;10319;52.206;20.996;2024-02-16T09:05:11;22.70;;;7.40;;
20322;SDS011;10319;52.206;20.996;2024-02-16T09:07:44;24.10;;;7.00;;
20322;SDS011;10319;52.206;20.996;2024-02-16T09:10:25;21.20;;;7.10;;
20322;SDS011;10319;52.206;20.996;2024-02-16T09:12:50;21.27;;;6.70;;
20322;SDS011;10319;52.206;20.996;2024-02-16T09:18:33;21.60;;;6.63;;
20322;SDS011;10319;52.206;20.996;2024-02-16T09:20:59;19.83;;;5.87;;
20322;SDS011;10319;52.206;20.996;2024-02-16T09:23:24;21.37;;;6.33;;
20322;SDS011;10319;52.206;20.996;2024-02-16T09:25:56;21.73;;;6.77;;
20322;SDS011;10319;52.206;20.996;2024-02-16T09:28:21;22.33;;;6.80;;
20322;SDS011;10319;52.206;20.996;2024-02-16T09:30:47;20.43;;;6.27;;
20322;SDS011;10319;52.206;20.996;2024-02-16T09:33:12;20.63;;;6.43;;
20322;SDS011;10319;52.206;20.996;2024-02-16T09:35:40;20.77;;;6.57;;
20322;SDS011;10319;52.206;20.996;2024-02-16T09:38:06;22.27;;;6.83;;
20322;SDS011;10319;52.206;20.996;2024-02-16T09:40:36;19.50;;;6.37;;
20322;SDS011;10319;52.206;20.996;2024-02-16T09:43:22;20.23;;;6.00;;
20322;SDS011;10319;52.206;20.996;2024-02-16T09:45:51;21.90;;;6.40;;
20322;SDS011;10319;52.206;20.996;2024-02-16T09:48:24;20.27;;;6.30;;
20322;SDS011;10319;52.206;20.996;2024-02-16T09:50:51;18.63;;;5.47;;
20322;SDS011;10319;52.206;20.996;2024-02-16T09:53:27;24.13;;;7.20;;
20322;SDS011;10319;52.206;20.996;2024-02-16T09:55:56;20.93;;;7.30;;
20322;SDS011;10319;52.206;20.996;2024-02-16T09:58:23;22.47;;;7.00;;
20322;SDS011;10319;52.206;20.996;2024-02-16T10:00:53;21.20;;;7.07;;
20322;SDS011;10319;52.206;20.996;2024-02-16T10:06:10;21.37;;;6.70;;
20322;SDS011;10319;52.206;20.996;2024-02-16T10:08:53;20.43;;;6.37;;
20322;SDS011;10319;52.206;20.996;2024-02-16T10:11:20;19.07;;;5.83;;
20322;SDS011;10319;52.206;20.996;2024-02-16T10:13:59;22.40;;;6.77;;
20322;SDS011;10319;52.206;20.996;2024-02-16T10:16:24;21.60;;;7.13;;
20322;SDS011;10319;52.206;20.996;2024-02-16T10:22:11;18.30;;;6.73;;
20322;SDS011;10319;52.206;20.996;2024-02-16T10:24:48;16.80;;;5.37;;
20322;SDS011;10319;52.206;20.996;2024-02-16T10:27:17;17.57;;;5.07;;
20322;SDS011;10319;52.206;20.996;2024-02-16T10:29:48;18.17;;;5.80;;
20322;SDS011;10319;52.206;20.996;2024-02-16T10:32:18;18.80;;;6.23;;
20322;SDS011;10319;52.206;20.996;2024-02-16T10:34:43;22.30;;;7.23;;
20322;SDS011;10319;52.206;20.996;2024-02-16T10:37:11;23.90;;;7.17;;
20322;SDS011;10319;52.206;20.996;2024-02-16T10:39:37;23.20;;;7.07;;
20322;SDS011;10319;52.206;20.996;2024-02-16T10:42:04;21.40;;;6.60;;
20322;SDS011;10319;52.206;20.996;2024-02-16T10:44:38;25.20;;;7.23;;
20322;SDS011;10319;52.206;20.996;2024-02-16T10:47:07;22.93;;;7.23;;
20322;SDS011;10319;52.206;20.996;2024-02-16T10:49:33;27.53;;;7.73;;
20322;SDS011;10319;52.206;20.996;2024-02-16T10:51:58;18.30;;;6.23;;
20322;SDS011;10319;52.206;20.996;2024-02-16T10:54:29;24.23;;;7.53;;
20322;SDS011;10319;52.206;20.996;2024-02-16T10:56:55;20.00;;;7.00;;
20322;SDS011;10319;52.206;20.996;2024-02-16T10:59:20;20.90;;;7.03;;
20322;SDS011;10319;52.206;20.996;2024-02-16T11:01:46;21.23;;;7.07;;
20322;SDS011;10319;52.206;20.996;2024-02-16T11:04:12;19.57;;;6.17;;
20322;SDS011;10319;52.206;20.996;2024-02-16T11:06:48;18.67;;;6.57;;
20322;SDS011;10319;52.206;20.996;2024-02-16T11:09:26;21.07;;;6.60;;
20322;SDS011;10319;52.206;20.996;2024-02-16T11:11:53;18.47;;;6.17;;
20322;SDS011;10319;52.206;20.996;2024-02-16T11:14:18;18.80;;;6.10;;
20322;SDS011;10319;52.206;20.996;2024-02-16T11:16:46;15.60;;;5.20;;
20322;SDS011;10319;52.206;20.996;2024-02-16T11:19:12;20.03;;;5.93;;
20322;SDS011;10319;52.206;20.996;2024-02-16T11:21:54;18.67;;;6.50;;
20322;SDS011;10319;52.206;20.996;2024-02-16T11:24:29;16.10;;;5.93;;
20322;SDS011;10319;52.206;20.996;2024-02-16T11:26:55;18.90;;;6.20;;
20322;SDS011;10319;52.206;20.996;2024-02-16T11:29:20;19.13;;;6.30;;
20322;SDS011;10319;52.206;20.996;2024-02-16T11:31:46;16.83;;;5.37;;
20322;SDS011;10319;52.206;20.996;2024-02-16T11:34:21;16.50;;;5.10;;
20322;SDS011;10319;52.206;20.996;2024-02-16T11:36:46;17.27;;;6.07;;
20322;SDS011;10319;52.206;20.996;2024-02-16T11:39:12;16.07;;;5.53;;
20322;SDS011;10319;52.206;20.996;2024-02-16T11:41:41;17.00;;;5.67;;
20322;SDS011;10319;52.206;20.996;2024-02-16T11:44:06;18.13;;;5.70;;
20322;SDS011;10319;52.206;20.996;2024-02-16T11:46:31;18.57;;;5.70;;
20322;SDS011;10319;52.206;20.996;2024-02-16T11:49:06;18.57;;;5.97;;
20322;SDS011;10319;52.206;20.996;2024-02-16T11:51:32;17.93;;;5.93;;
20322;SDS011;10319;52.206;20.996;2024-02-16T11:53:57;19.83;;;6.73;;
20322;SDS011;10319;52.206;20.996;2024-02-16T11:56:23;22.40;;;7.10;;
20322;SDS011;10319;52.206;20.996;2024-02-16T11:58:49;18.93;;;6.40;;
20322;SDS011;10319;52.206;20.996;2024-02-16T12:01:14;18.27;;;6.53;;
20322;SDS011;10319;52.206;20.996;2024-02-16T12:03:41;19.03;;;6.60;;
20322;SDS011;10319;52.206;20.996;2024-02-16T12:06:07;19.00;;;6.30;;
20322;SDS011;10319;52.206;20.996;2024-02-16T12:08:33;20.07;;;6.60;;
20322;SDS011;10319;52.206;20.996;2024-02-16T12:10:58;18.47;;;6.30;;
20322;SDS011;10319;52.206;20.996;2024-02-16T12:13:24;20.30;;;6.73;;
20322;SDS011;10319;52.206;20.996;2024-02-16T12:15:50;20.17;;;6.63;;
20322;SDS011;10319;52.206;20.996;2024-02-16T12:18:20;19.07;;;6.80;;
20322;SDS011;10319;52.206;20.996;2024-02-16T12:20:55;18.73;;;6.80;;
20322;SDS011;10319;52.206;20.996;2024-02-16T12:23:21;18.77;;;6.33;;
20322;SDS011;10319;52.206;20.996;2024-02-16T12:25:47;18.23;;;6.20;;
20322;SDS011;10319;52.206;20.996;2024-02-16T12:28:13;17.47;;;5.60;;
20322;SDS011;10319;52.206;20.996;2024-02-16T12:30:38;15.90;;;5.27;;
20322;SDS011;10319;52.206;20.996;2024-02-16T12:33:05;18.80;;;6.43;;
20322;SDS011;10319;52.206;20.996;2024-02-16T12:35:30;17.53;;;5.93;;
20322;SDS011;10319;52.206;20.996;2024-02-16T12:37:55;16.37;;;5.20;;
20322;SDS011;10319;52.206;20.996;2024-02-16T12:40:21;17.97;;;5.90;;
20322;SDS011;10319;52.206;20.996;2024-02-16T12:42:46;17.17;;;5.90;;
20322;SDS011;10319;52.206;20.996;2024-02-16T12:45:13;17.03;;;5.47;;
20322;SDS011;10319;52.206;20.996;2024-02-16T12:47:38;15.77;;;5.17;;
20322;SDS011;10319;52.206;20.996;2024-02-16T12:50:03;16.30;;;5.27;;
20322;SDS011;10319;52.206;20.996;2024-02-16T12:52:29;14.83;;;4.90;;
20322;SDS011;10319;52.206;20.996;2024-02-16T12:54:55;16.47;;;5.07;;
20322;SDS011;10319;52.206;20.996;2024-02-16T12:57:23;17.37;;;5.40;;
20322;SDS011;10319;52.206;20.996;2024-02-16T12:59:48;16.47;;;5.13;;
20322;SDS011;10319;52.206;20.996;2024-02-16T13:02:14;16.77;;;5.27;;
20322;SDS011;10319;52.206;20.996;2024-02-16T13:04:39;16.77;;;5.25;;
20322;SDS011;10319;52.206;20.996;2024-02-16T13:07:05;16.05;;;5.22;;
20322;SDS011;10319;52.206;20.996;2024-02-16T13:09:30;15.27;;;4.97;;
20322;SDS011;10319;52.206;20.996;2024-02-16T13:11:56;16.77;;;5.55;;
20322;SDS011;10319;52.206;20.996;2024-02-16T13:14:21;14.63;;;4.82;;
20322;SDS011;10319;52.206;20.996;2024-02-16T13:16:46;16.50;;;5.40;;
20322;SDS011;10319;52.206;20.996;2024-02-16T13:19:12;18.35;;;5.97;;
20322;SDS011;10319;52.206;20.996;2024-02-16T13:21:38;20.13;;;6.43;;
20322;SDS011;10319;52.206;20.996;2024-02-16T13:24:03;18.90;;;5.95;;
20322;SDS011;10319;52.206;20.996;2024-02-16T13:26:29;17.48;;;5.75;;
20322;SDS011;10319;52.206;20.996;2024-02-16T13:28:56;18.00;;;5.97;;
20322;SDS011;10319;52.206;20.996;2024-02-16T13:31:22;18.15;;;5.68;;
20322;SDS011;10319;52.206;20.996;2024-02-16T13:33:48;20.15;;;6.50;;
20322;SDS011;10319;52.206;20.996;2024-02-16T13:36:14;16.13;;;5.60;;
20322;SDS011;10319;52.206;20.996;2024-02-16T13:38:39;19.55;;;6.55;;
20322;SDS011;10319;52.206;20.996;2024-02-16T13:41:06;20.42;;;6.35;;
20322;SDS011;10319;52.206;20.996;2024-02-16T13:43:31;19.38;;;6.43;;
20322;SDS011;10319;52.206;20.996;2024-02-16T13:45:57;16.05;;;5.47;;
20322;SDS011;10319;52.206;20.996;2024-02-16T13:48:23;20.63;;;6.10;;
20322;SDS011;10319;52.206;20.996;2024-02-16T13:50:49;18.42;;;6.00;;
20322;SDS011;10319;52.206;20.996;2024-02-16T13:53:15;16.73;;;5.80;;
20322;SDS011;10319;52.206;20.996;2024-02-16T13:55:44;18.38;;;6.15;;
20322;SDS011;10319;52.206;20.996;2024-02-16T13:58:10;16.58;;;5.65;;
20322;SDS011;10319;52.206;20.996;2024-02-16T14:00:36;19.27;;;6.05;;
20322;SDS011;10319;52.206;20.996;2024-02-16T14:03:03;17.02;;;5.18;;
20322;SDS011;10319;52.206;20.996;2024-02-16T14:05:32;15.82;;;5.38;;
20322;SDS011;10319;52.206;20.996;2024-02-16T14:08:12;16.02;;;5.20;;
20322;SDS011;10319;52.206;20.996;2024-02-16T14:10:42;17.30;;;5.50;;
20322;SDS011;10319;52.206;20.996;2024-02-16T14:13:10;18.90;;;5.55;;
20322;SDS011;10319;52.206;20.996;2024-02-16T14:15:55;15.57;;;4.82;;
20322;SDS011;10319;52.206;20.996;2024-02-16T14:24:31;15.57;;;4.50;;
20322;SDS011;10319;52.206;20.996;2024-02-16T14:26:57;13.82;;;4.60;;
20322;SDS011;10319;52.206;20.996;2024-02-16T14:29:26;14.48;;;4.43;;
20322;SDS011;10319;52.206;20.996;2024-02-16T14:31:54;13.15;;;4.20;;
20322;SDS011;10319;52.206;20.996;2024-02-16T14:34:22;14.40;;;4.47;;
20322;SDS011;10319;52.206;20.996;2024-02-16T14:36:51;14.80;;;4.60;;
20322;SDS011;10319;52.206;20.996;2024-02-16T14:39:18;15.20;;;4.38;;
20322;SDS011;10319;52.206;20.996;2024-02-16T14:45:08;19.42;;;5.60;;
20322;SDS011;10319;52.206;20.996;2024-02-16T14:47:56;16.98;;;5.22;;
20322;SDS011;10319;52.206;20.996;2024-02-16T14:53:10;17.58;;;4.72;;
20322;SDS011;10319;52.206;20.996;2024-02-16T15:02:19;15.82;;;4.72;;
20322;SDS011;10319;52.206;20.996;2024-02-16T15:04:46;16.27;;;5.03;;
20322;SDS011;10319;52.206;20.996;2024-02-16T15:07:12;16.52;;;4.80;;
20322;SDS011;10319;52.206;20.996;2024-02-16T15:09:51;16.57;;;5.13;;